createdAt,value
2018-01-03T00:00:15.632Z,3.87
2018-01-03T00:02:43.070Z,3.30
2018-01-03T00:05:10.538Z,3.60
2018-01-03T00:07:38.047Z,3.67
2018-01-03T00:10:05.534Z,3.23
2018-01-03T00:12:35.303Z,4.37
2018-01-03T00:15:02.719Z,3.83
2018-01-03T00:17:30.184Z,2.80
2018-01-03T00:19:57.640Z,3.20
2018-01-03T00:22:25.083Z,3.67
2018-01-03T00:24:53.331Z,3.30
2018-01-03T00:27:20.772Z,3.87
2018-01-03T00:29:48.246Z,3.93
2018-01-03T00:32:16.783Z,3.80
2018-01-03T00:34:44.266Z,3.50
2018-01-03T00:37:11.752Z,3.00
2018-01-03T00:39:39.268Z,3.23
2018-01-03T00:42:06.718Z,2.87
2018-01-03T00:44:36.857Z,3.23
2018-01-03T00:47:04.315Z,3.00
2018-01-03T00:49:31.747Z,3.50
2018-01-03T00:51:59.187Z,2.43
2018-01-03T00:54:27.677Z,3.33
2018-01-03T00:56:55.135Z,3.37
2018-01-03T00:59:22.576Z,3.33
2018-01-03T01:01:50.054Z,2.93
2018-01-03T01:04:18.396Z,2.93
2018-01-03T01:06:46.132Z,2.53
2018-01-03T01:09:13.603Z,3.03
2018-01-03T01:11:41.090Z,2.67
2018-01-03T01:14:08.563Z,3.10
2018-01-03T01:16:36.015Z,2.87
2018-01-03T01:19:04.091Z,3.20
2018-01-03T01:21:31.558Z,2.80
2018-01-03T01:23:58.999Z,2.40
2018-01-03T01:26:26.453Z,3.43
2018-01-03T01:28:53.913Z,3.30
2018-01-03T01:31:21.399Z,3.43
2018-01-03T01:33:48.869Z,3.33
2018-01-03T01:36:16.343Z,5.73
2018-01-03T01:38:43.796Z,3.73
2018-01-03T01:41:11.253Z,3.60
2018-01-03T01:43:38.712Z,2.70
2018-01-03T01:46:06.175Z,5.10
2018-01-03T01:48:33.616Z,5.83
2018-01-03T01:51:01.087Z,3.70
2018-01-03T01:53:28.532Z,5.50
2018-01-03T01:55:55.979Z,5.40
2018-01-03T01:58:23.442Z,4.53
2018-01-03T02:00:50.909Z,3.80
2018-01-03T02:03:19.300Z,4.47
2018-01-03T02:05:46.737Z,4.13
2018-01-03T02:08:14.185Z,3.33
2018-01-03T02:10:41.662Z,3.47
2018-01-03T02:13:09.126Z,4.90
2018-01-03T02:15:36.594Z,6.03
2018-01-03T02:18:04.050Z,5.87
2018-01-03T02:20:31.662Z,4.00
2018-01-03T02:22:59.313Z,4.13
2018-01-03T02:25:26.774Z,4.90
2018-01-03T02:27:54.244Z,5.43
2018-01-03T02:30:21.692Z,4.50
2018-01-03T02:32:49.156Z,3.50
2018-01-03T02:35:16.608Z,2.93
2018-01-03T02:37:44.067Z,3.03
2018-01-03T02:40:11.603Z,3.80
2018-01-03T02:42:39.089Z,3.67
2018-01-03T02:45:06.550Z,4.00
2018-01-03T02:47:34.007Z,3.27
2018-01-03T02:50:01.458Z,4.03
2018-01-03T02:52:28.934Z,2.30
2018-01-03T02:54:56.447Z,2.53
2018-01-03T02:57:23.903Z,2.10
2018-01-03T02:59:51.351Z,2.50
2018-01-03T03:02:18.805Z,1.93
2018-01-03T03:04:46.383Z,2.03
2018-01-03T03:07:13.823Z,2.67
2018-01-03T03:09:41.275Z,1.80
2018-01-03T03:12:08.726Z,2.30
2018-01-03T03:14:36.189Z,2.70
2018-01-03T03:17:03.714Z,2.77
2018-01-03T03:19:31.165Z,2.30
2018-01-03T03:21:58.622Z,2.30
2018-01-03T03:24:27.874Z,2.13
2018-01-03T03:26:55.322Z,2.40
2018-01-03T03:29:22.786Z,2.10
2018-01-03T03:31:50.242Z,2.07
2018-01-03T03:34:17.754Z,2.20
2018-01-03T03:36:45.211Z,2.87
2018-01-03T03:39:12.663Z,2.60
2018-01-03T03:41:40.147Z,2.70
2018-01-03T03:44:07.587Z,2.20
2018-01-03T03:46:35.061Z,3.30
2018-01-03T03:49:02.522Z,2.30
2018-01-03T03:51:30.612Z,2.73
2018-01-03T03:53:58.058Z,2.20
2018-01-03T03:56:25.556Z,2.57
2018-01-03T03:58:53.012Z,2.70
2018-01-03T04:01:20.458Z,2.90
2018-01-03T04:03:47.907Z,2.57
2018-01-03T04:06:15.342Z,1.83
2018-01-03T04:08:42.778Z,2.30
2018-01-03T04:11:10.257Z,2.10
2018-01-03T04:13:37.705Z,2.70
2018-01-03T04:16:05.177Z,1.93
2018-01-03T04:18:32.626Z,2.20
2018-01-03T04:21:00.083Z,2.50
2018-01-03T04:23:27.536Z,1.90
2018-01-03T04:25:54.980Z,2.10
2018-01-03T04:28:22.436Z,2.47
2018-01-03T04:30:49.906Z,2.33
2018-01-03T04:33:19.074Z,2.27
2018-01-03T04:35:46.519Z,2.97
2018-01-03T04:38:13.964Z,2.70
2018-01-03T04:40:41.415Z,3.23
2018-01-03T04:43:08.867Z,2.40
2018-01-03T04:45:36.306Z,3.80
2018-01-03T04:48:03.762Z,2.10
2018-01-03T04:50:31.243Z,1.80
2018-01-03T04:52:59.550Z,2.17
2018-01-03T04:55:27.038Z,2.23
2018-01-03T04:57:54.495Z,2.17
2018-01-03T05:00:21.936Z,1.50
2018-01-03T05:02:49.399Z,1.40
2018-01-03T05:05:16.862Z,2.23
2018-01-03T05:07:44.310Z,2.17
2018-01-03T05:10:11.803Z,1.40
2018-01-03T05:12:39.259Z,1.77
2018-01-03T05:15:06.692Z,1.70
2018-01-03T05:17:34.122Z,1.40
2018-01-03T05:20:01.607Z,1.50
2018-01-03T05:22:29.077Z,1.27
2018-01-03T05:24:56.504Z,1.37
2018-01-03T05:27:23.954Z,1.33
2018-01-03T05:29:51.419Z,1.30
2018-01-03T05:32:18.856Z,2.00
2018-01-03T05:34:46.312Z,1.33
2018-01-03T05:37:13.787Z,1.77
2018-01-03T05:39:41.237Z,1.53
2018-01-03T05:42:08.685Z,1.30
2018-01-03T05:44:36.895Z,1.30
2018-01-03T05:47:04.361Z,1.37
2018-01-03T05:49:31.814Z,1.20
2018-01-03T05:51:59.247Z,1.50
2018-01-03T05:54:29.235Z,1.43
2018-01-03T05:56:56.706Z,1.80
2018-01-03T05:59:24.235Z,1.50
2018-01-03T06:01:51.683Z,1.70
2018-01-03T06:04:19.153Z,1.80
2018-01-03T06:06:46.722Z,1.70
2018-01-03T06:09:14.242Z,1.70
2018-01-03T06:11:41.679Z,1.77
2018-01-03T06:14:09.131Z,1.60
2018-01-03T06:16:36.588Z,1.50
2018-01-03T06:19:04.627Z,2.00
2018-01-03T06:21:32.091Z,2.60
2018-01-03T06:23:59.566Z,1.67
2018-01-03T06:26:27.010Z,1.20
2018-01-03T06:28:54.563Z,1.80
2018-01-03T06:31:21.955Z,1.80
2018-01-03T06:33:49.413Z,1.87
2018-01-03T06:36:16.871Z,1.83
2018-01-03T06:38:44.331Z,1.60
2018-01-03T06:41:13.239Z,1.33
2018-01-03T06:43:40.711Z,1.63
2018-01-03T06:46:08.159Z,1.13
2018-01-03T06:48:35.598Z,1.30
2018-01-03T06:51:03.052Z,1.93
2018-01-03T06:53:30.508Z,1.90
2018-01-03T06:55:57.976Z,1.53
2018-01-03T06:58:25.422Z,1.77
2018-01-03T07:00:52.856Z,1.40
2018-01-03T07:03:20.310Z,1.40
2018-01-03T07:05:47.758Z,1.77
2018-01-03T07:08:16.659Z,2.40
2018-01-03T07:10:44.130Z,1.23
2018-01-03T07:13:11.710Z,2.13
2018-01-03T07:15:39.178Z,1.17
2018-01-03T07:18:06.619Z,1.67
2018-01-03T07:20:35.242Z,1.40
2018-01-03T07:23:02.715Z,1.53
2018-01-03T07:25:30.164Z,1.30
2018-01-03T07:27:57.672Z,1.80
2018-01-03T07:30:25.154Z,1.60
2018-01-03T07:32:52.615Z,1.40
2018-01-03T07:35:20.128Z,1.60
2018-01-03T07:37:47.570Z,1.70
2018-01-03T07:40:16.000Z,1.57
2018-01-03T07:42:43.502Z,1.80
2018-01-03T07:45:10.950Z,2.20
2018-01-03T07:47:38.445Z,1.93
2018-01-03T07:50:05.952Z,2.00
2018-01-03T07:52:33.392Z,2.30
2018-01-03T07:55:00.875Z,2.40
2018-01-03T07:57:28.373Z,2.37
2018-01-03T07:59:55.908Z,1.83
2018-01-03T08:02:23.364Z,1.97
2018-01-03T08:04:50.846Z,2.30
2018-01-03T08:07:18.499Z,1.83
2018-01-03T08:09:45.953Z,2.07
2018-01-03T08:12:13.427Z,2.07
2018-01-03T08:14:40.878Z,2.13
2018-01-03T08:17:08.340Z,1.53
2018-01-03T08:19:35.787Z,2.00
2018-01-03T08:22:03.255Z,2.07
2018-01-03T08:24:30.788Z,2.20
2018-01-03T08:26:58.241Z,3.00
2018-01-03T08:29:25.692Z,2.60
2018-01-03T08:31:53.164Z,2.63
2018-01-03T08:34:20.640Z,2.10
2018-01-03T08:36:48.143Z,2.20
2018-01-03T08:39:17.122Z,2.33
2018-01-03T08:41:44.596Z,2.33
2018-01-03T08:44:12.056Z,2.57
2018-01-03T08:46:39.578Z,2.60
2018-01-03T08:49:07.028Z,2.20
2018-01-03T08:51:34.470Z,2.30
2018-01-03T08:54:01.971Z,3.13
2018-01-03T08:56:29.449Z,1.93
2018-01-03T08:58:56.912Z,2.67
2018-01-03T09:01:24.377Z,2.13
2018-01-03T09:03:51.841Z,2.73
2018-01-03T09:06:19.282Z,2.30
2018-01-03T09:08:46.755Z,2.20
2018-01-03T09:11:14.206Z,2.47
2018-01-03T09:13:41.675Z,2.23
2018-01-03T09:16:09.135Z,2.20
2018-01-03T09:18:36.643Z,3.03
2018-01-03T09:21:04.098Z,2.10
2018-01-03T09:23:31.539Z,2.10
2018-01-03T09:25:58.981Z,2.70
2018-01-03T09:28:26.466Z,2.03
2018-01-03T09:30:53.919Z,2.00
2018-01-03T09:33:21.375Z,2.10
2018-01-03T09:35:48.831Z,2.40
2018-01-03T09:38:16.314Z,1.87
2018-01-03T09:40:44.173Z,2.50
2018-01-03T09:43:11.619Z,2.27
2018-01-03T09:45:39.056Z,2.27
2018-01-03T09:48:06.514Z,1.83
2018-01-03T09:50:33.957Z,2.10
2018-01-03T09:53:01.412Z,3.00
2018-01-03T09:55:28.891Z,2.83
2018-01-03T09:57:56.340Z,2.07
2018-01-03T10:00:23.884Z,2.17
2018-01-03T10:02:51.351Z,2.30
2018-01-03T10:05:18.783Z,3.40
2018-01-03T10:07:46.273Z,2.80
2018-01-03T10:10:14.230Z,2.90
2018-01-03T10:12:41.672Z,2.70
2018-01-03T10:15:09.128Z,2.40
2018-01-03T10:17:36.596Z,2.60
2018-01-03T10:20:04.458Z,2.07
2018-01-03T10:22:33.453Z,2.60
2018-01-03T10:25:00.927Z,2.37
2018-01-03T10:27:28.388Z,2.30
2018-01-03T10:29:55.851Z,3.00
2018-01-03T10:32:23.372Z,2.83
2018-01-03T10:34:50.823Z,3.10
2018-01-03T10:37:18.310Z,2.40
2018-01-03T10:39:45.777Z,3.03
2018-01-03T10:42:13.239Z,2.70
2018-01-03T10:44:41.488Z,2.93
2018-01-03T10:47:09.095Z,2.55
2018-01-03T10:49:36.547Z,2.20
2018-01-03T10:52:04.000Z,2.80
2018-01-03T10:54:31.456Z,3.00
2018-01-03T10:56:58.891Z,2.53
2018-01-03T10:59:26.403Z,2.50
2018-01-03T11:01:53.846Z,2.10
2018-01-03T11:04:21.354Z,2.13
2018-01-03T11:06:48.854Z,2.70
2018-01-03T11:09:16.599Z,2.27
2018-01-03T11:11:44.042Z,2.53
2018-01-03T11:14:11.541Z,1.90
2018-01-03T11:16:39.164Z,2.40
2018-01-03T11:19:06.655Z,2.03
2018-01-03T11:21:34.099Z,2.97
2018-01-03T11:24:01.566Z,1.73
2018-01-03T11:26:29.094Z,2.47
2018-01-03T11:28:56.731Z,3.53
2018-01-03T11:31:24.204Z,2.70
2018-01-03T11:33:51.688Z,2.53
2018-01-03T11:36:19.155Z,2.70
2018-01-03T11:38:46.663Z,3.10
2018-01-03T11:41:14.207Z,2.90
2018-01-03T11:43:41.688Z,3.00
2018-01-03T11:46:09.170Z,3.53
2018-01-03T11:48:36.653Z,2.50
2018-01-03T11:51:04.242Z,2.77
2018-01-03T11:53:31.769Z,2.90
2018-01-03T11:55:59.305Z,3.50
2018-01-03T11:58:26.791Z,2.70
2018-01-03T12:00:54.263Z,2.93
2018-01-03T12:03:21.728Z,8.37
2018-01-03T12:05:49.243Z,3.97
2018-01-03T12:08:16.795Z,3.87
2018-01-03T12:10:45.543Z,5.77
2018-01-03T12:13:13.011Z,3.63
2018-01-03T12:15:40.499Z,5.73
2018-01-03T12:18:07.988Z,4.00
2018-01-03T12:20:35.499Z,2.93
2018-01-03T12:23:04.676Z,3.20
2018-01-03T12:25:32.168Z,3.07
2018-01-03T12:30:32.415Z,4.40
2018-01-03T12:33:00.451Z,6.77
2018-01-03T12:35:27.928Z,38.20
2018-01-03T12:37:55.426Z,17.03
2018-01-03T12:40:22.904Z,20.63
2018-01-03T12:42:50.445Z,32.90
2018-01-03T12:45:18.039Z,10.50
2018-01-03T12:47:45.514Z,13.87
2018-01-03T12:50:13.000Z,4.33
2018-01-03T12:52:40.487Z,17.97
2018-01-03T12:55:07.951Z,8.53
2018-01-03T12:57:35.408Z,6.63
2018-01-03T13:00:02.900Z,5.67
2018-01-03T13:02:30.382Z,6.33
2018-01-03T13:04:57.915Z,16.77
2018-01-03T13:07:25.410Z,11.60
2018-01-03T13:09:52.912Z,14.60
2018-01-03T13:12:20.360Z,6.50
2018-01-03T13:14:47.816Z,4.10
2018-01-03T13:17:15.268Z,3.60
2018-01-03T13:19:42.789Z,3.40
2018-01-03T13:22:10.267Z,3.70
2018-01-03T13:24:37.737Z,2.93
2018-01-03T13:27:05.632Z,2.70
2018-01-03T13:29:33.138Z,2.43
2018-01-03T13:32:00.620Z,2.00
2018-01-03T13:34:28.183Z,1.20
2018-01-03T13:36:55.655Z,1.53
2018-01-03T13:39:23.150Z,1.50
2018-01-03T13:41:50.600Z,1.47
2018-01-03T13:44:20.997Z,1.47
2018-01-03T13:46:48.441Z,1.67
2018-01-03T13:49:15.903Z,1.20
2018-01-03T13:51:43.402Z,1.23
2018-01-03T13:54:10.863Z,1.10
2018-01-03T13:56:38.302Z,0.87
2018-01-03T13:59:05.782Z,1.00
2018-01-03T14:14:28.562Z,1.20
2018-01-03T14:16:56.003Z,1.00
2018-01-03T14:19:23.463Z,1.40
2018-01-03T14:21:50.941Z,1.53
2018-01-03T14:24:18.406Z,1.13
2018-01-03T14:26:45.869Z,1.90
2018-01-03T14:29:13.331Z,1.37
2018-01-03T14:31:40.853Z,0.77
2018-01-03T14:34:08.293Z,1.00
2018-01-03T14:36:35.760Z,1.30
2018-01-03T14:39:03.247Z,1.00
2018-01-03T14:41:30.719Z,1.20
2018-01-03T14:43:58.207Z,1.07
2018-01-03T14:46:25.653Z,1.70
2018-01-03T14:48:53.182Z,1.40
2018-01-03T14:51:20.639Z,1.37
2018-01-03T14:53:48.080Z,1.13
2018-01-03T14:56:17.247Z,1.00
2018-01-03T14:58:44.701Z,0.93
2018-01-03T15:01:12.159Z,1.83
2018-01-03T15:03:39.615Z,0.93
2018-01-03T15:06:07.048Z,1.50
2018-01-03T15:08:34.934Z,1.20
2018-01-03T15:11:02.476Z,0.87
2018-01-03T15:13:29.910Z,1.03
2018-01-03T15:15:57.358Z,0.90
2018-01-03T15:18:25.042Z,1.27
2018-01-03T15:20:52.514Z,0.73
2018-01-03T15:23:20.001Z,0.80
2018-01-03T15:25:47.447Z,0.50
2018-01-03T15:28:16.702Z,1.17
2018-01-03T15:30:44.203Z,0.70
2018-01-03T15:33:11.683Z,0.67
2018-01-03T15:35:39.196Z,0.80
2018-01-03T15:38:06.660Z,0.77
2018-01-03T15:40:34.675Z,0.93
2018-01-03T15:43:02.136Z,1.00
2018-01-03T15:45:29.604Z,0.90
2018-01-03T15:47:57.107Z,0.97
2018-01-03T15:50:24.616Z,0.80
2018-01-03T15:52:52.075Z,0.60
2018-01-03T15:55:20.279Z,0.90
2018-01-03T15:57:47.770Z,1.10
2018-01-03T16:00:15.260Z,0.80
2018-01-03T16:02:42.699Z,0.77
2018-01-03T16:05:10.231Z,0.93
2018-01-03T16:07:37.716Z,0.70
2018-01-03T16:10:05.184Z,0.60
2018-01-03T16:12:32.640Z,0.73
2018-01-03T16:15:00.165Z,0.80
2018-01-03T16:17:27.654Z,0.80
2018-01-03T16:19:56.697Z,1.00
2018-01-03T16:22:24.207Z,0.70
2018-01-03T16:24:51.704Z,0.80
2018-01-03T16:27:19.200Z,0.77
2018-01-03T16:29:46.675Z,0.90
2018-01-03T16:32:14.159Z,1.00
2018-01-03T16:34:41.620Z,0.70
2018-01-03T16:37:09.074Z,0.80
2018-01-03T16:39:37.072Z,1.03
2018-01-03T16:42:04.562Z,1.20
2018-01-03T16:44:32.091Z,1.00
2018-01-03T16:46:59.644Z,1.00
2018-01-03T16:49:27.118Z,0.90
2018-01-03T16:52:00.033Z,0.90
2018-01-03T16:54:27.803Z,0.70
2018-01-03T16:56:55.414Z,0.73
2018-01-03T16:59:22.927Z,0.93
2018-01-03T17:01:51.054Z,1.00
2018-01-03T17:04:18.619Z,0.90
2018-01-03T17:06:47.157Z,1.43
2018-01-03T17:09:14.726Z,1.40
2018-01-03T17:11:42.266Z,1.33
2018-01-03T17:14:09.730Z,0.93
2018-01-03T17:16:37.186Z,0.80
2018-01-03T17:19:04.662Z,0.97
2018-01-03T17:21:32.111Z,1.20
2018-01-03T17:23:59.583Z,1.03
2018-01-03T17:26:27.060Z,1.03
2018-01-03T17:28:54.514Z,1.40
2018-01-03T17:31:21.980Z,1.10
2018-01-03T17:33:49.461Z,1.03
2018-01-03T17:36:16.928Z,1.40
2018-01-03T17:38:44.391Z,1.30
2018-01-03T17:41:11.830Z,1.20
2018-01-03T17:43:39.295Z,1.40
2018-01-03T17:46:06.755Z,0.90
2018-01-03T17:48:34.298Z,1.80
2018-01-03T17:51:01.779Z,1.47
2018-01-03T17:53:29.266Z,1.47
2018-01-03T17:55:56.846Z,1.73
2018-01-03T17:58:24.373Z,1.30
2018-01-03T18:00:51.845Z,1.50
2018-01-03T18:03:19.304Z,1.40
2018-01-03T18:05:46.778Z,2.30
2018-01-03T18:08:14.256Z,1.50
2018-01-03T18:10:41.754Z,1.50
2018-01-03T18:13:09.211Z,2.23
2018-01-03T18:15:36.720Z,1.77
2018-01-03T18:18:05.170Z,1.70
2018-01-03T18:20:32.767Z,2.00
2018-01-03T18:23:00.223Z,2.10
2018-01-03T18:25:27.785Z,1.20
2018-01-03T18:27:55.322Z,4.10
2018-01-03T18:30:22.824Z,3.00
2018-01-03T18:32:50.286Z,1.90
2018-01-03T18:35:17.722Z,1.10
2018-01-03T18:37:45.580Z,1.13
2018-01-03T18:40:13.023Z,1.10
2018-01-03T18:42:40.484Z,1.13
2018-01-03T18:45:07.972Z,1.10
2018-01-03T18:47:35.428Z,1.10
2018-01-03T18:50:02.957Z,1.23
2018-01-03T18:52:30.424Z,1.50
2018-01-03T18:54:57.894Z,1.40
2018-01-03T18:57:25.451Z,1.40
2018-01-03T18:59:52.959Z,1.57
2018-01-03T19:02:20.459Z,1.80
2018-01-03T19:04:47.952Z,1.53
2018-01-03T19:07:15.462Z,2.10
2018-01-03T19:09:42.915Z,3.60
2018-01-03T19:12:10.435Z,1.87
2018-01-03T19:17:11.712Z,2.47
2018-01-03T19:19:39.223Z,1.90
2018-01-03T19:22:06.675Z,1.87
2018-01-03T19:24:34.154Z,1.57
2018-01-03T19:27:01.638Z,1.60
2018-01-03T19:29:29.166Z,2.10
2018-01-03T19:31:56.664Z,1.90
2018-01-03T19:34:24.269Z,1.93
2018-01-03T19:36:51.755Z,2.50
2018-01-03T19:39:19.229Z,1.67
2018-01-03T19:41:46.747Z,2.40
2018-01-03T19:44:14.350Z,1.30
2018-01-03T19:46:41.813Z,2.17
2018-01-03T19:49:09.710Z,1.60
2018-01-03T19:51:37.310Z,1.80
2018-01-03T19:54:04.866Z,1.40
2018-01-03T19:56:33.274Z,1.40
2018-01-03T19:59:00.919Z,1.40
2018-01-03T20:01:28.512Z,1.60
2018-01-03T20:03:56.009Z,1.50
2018-01-03T20:06:24.160Z,2.53
2018-01-03T20:08:51.834Z,2.30
2018-01-03T20:11:19.344Z,3.00
2018-01-03T20:13:47.068Z,2.00
2018-01-03T20:16:14.737Z,1.80
2018-01-03T20:18:42.264Z,1.80
2018-01-03T20:21:09.966Z,1.83
2018-01-03T20:23:37.993Z,1.73
2018-01-03T20:26:05.730Z,1.87
2018-01-03T20:28:33.340Z,2.30
2018-01-03T20:31:00.903Z,1.63
2018-01-03T20:33:28.382Z,1.63
2018-01-03T20:35:56.011Z,2.13
2018-01-03T20:38:23.776Z,1.70
2018-01-03T20:40:51.574Z,1.90
2018-01-03T20:43:19.361Z,1.53
2018-01-03T20:45:47.946Z,2.40
2018-01-03T20:48:15.752Z,2.00
2018-01-03T20:50:43.608Z,2.77
2018-01-03T20:53:11.249Z,2.00
2018-01-03T20:55:39.004Z,1.73
2018-01-03T20:58:06.553Z,3.23
2018-01-03T21:00:34.150Z,2.40
2018-01-03T21:03:01.783Z,1.73
2018-01-03T21:05:29.500Z,2.33
2018-01-03T21:07:57.256Z,1.90
2018-01-03T21:10:24.985Z,1.37
2018-01-03T21:12:52.675Z,1.70
2018-01-03T21:15:20.235Z,1.87
2018-01-03T21:17:47.755Z,2.00
2018-01-03T21:20:21.163Z,1.57
2018-01-03T21:22:49.608Z,1.23
2018-01-03T21:25:17.147Z,2.10
2018-01-03T21:27:44.928Z,3.23
2018-01-03T21:30:12.527Z,2.37
2018-01-03T21:32:40.072Z,3.20
2018-01-03T21:35:07.587Z,1.90
2018-01-03T21:37:35.129Z,2.17
2018-01-03T21:40:02.602Z,2.10
2018-01-03T21:42:30.079Z,2.40
2018-01-03T21:44:57.581Z,2.40
2018-01-03T21:47:25.124Z,1.70
2018-01-03T21:49:53.145Z,2.17
2018-01-03T21:52:20.702Z,1.70
2018-01-03T21:54:48.202Z,1.60
2018-01-03T21:57:17.036Z,1.87
2018-01-03T21:59:44.529Z,1.60
2018-01-03T22:02:12.050Z,1.83
2018-01-03T22:04:39.545Z,1.90
2018-01-03T22:07:07.203Z,2.63
2018-01-03T22:09:34.664Z,1.80
2018-01-03T22:12:02.134Z,1.77
2018-01-03T22:14:29.659Z,1.80
2018-01-03T22:16:57.163Z,2.13
2018-01-03T22:19:24.637Z,2.03
2018-01-03T22:21:52.148Z,1.60
2018-01-03T22:24:19.659Z,2.53
2018-01-03T22:26:47.164Z,1.73
2018-01-03T22:29:14.717Z,2.40
2018-01-03T22:31:42.258Z,2.27
2018-01-03T22:34:09.757Z,1.93
2018-01-03T22:36:37.235Z,1.60
2018-01-03T22:39:04.781Z,1.77
2018-01-03T22:41:32.244Z,2.20
2018-01-03T22:43:59.724Z,2.07
2018-01-03T22:46:27.204Z,1.87
2018-01-03T22:48:54.668Z,2.73
2018-01-03T22:51:22.163Z,2.20
2018-01-03T22:53:49.687Z,2.30
2018-01-03T22:56:17.207Z,2.03
2018-01-03T22:58:44.675Z,2.57
2018-01-03T23:01:12.155Z,2.40
2018-01-03T23:03:39.695Z,2.70
2018-01-03T23:06:07.205Z,1.87
2018-01-03T23:08:34.867Z,2.13
2018-01-03T23:11:02.349Z,2.93
2018-01-03T23:13:29.851Z,1.50
2018-01-03T23:15:57.345Z,2.60
2018-01-03T23:18:24.930Z,2.27
2018-01-03T23:20:52.397Z,1.70
2018-01-03T23:23:19.898Z,2.50
2018-01-03T23:25:47.383Z,2.03
2018-01-03T23:28:14.865Z,2.03
2018-01-03T23:30:42.329Z,2.03
2018-01-03T23:33:09.876Z,1.93
2018-01-03T23:35:37.364Z,2.20
2018-01-03T23:38:04.840Z,2.00
2018-01-03T23:40:32.315Z,1.70
2018-01-03T23:42:59.797Z,1.70
2018-01-03T23:45:27.304Z,2.10
2018-01-03T23:47:54.804Z,1.70
2018-01-03T23:50:22.275Z,1.67
2018-01-03T23:52:49.755Z,1.97
2018-01-03T23:55:17.258Z,2.00
2018-01-03T23:57:44.772Z,2.10
